createdAt,value
2022-12-10T00:01:14.621Z,57.50
2022-12-10T00:03:41.643Z,58.47
2022-12-10T00:06:12.338Z,57.03
2022-12-10T00:08:39.905Z,60.00
2022-12-10T00:11:09.316Z,58.13
2022-12-10T00:13:37.909Z,58.93
2022-12-10T00:16:07.799Z,57.83
2022-12-10T00:18:35.346Z,57.70
2022-12-10T00:21:12.128Z,52.73
2022-12-10T00:23:39.394Z,56.93
2022-12-10T00:26:11.674Z,58.47
2022-12-10T00:28:39.223Z,52.60
2022-12-10T00:31:08.614Z,56.23
2022-12-10T00:33:36.226Z,55.73
2022-12-10T00:36:05.874Z,59.57
2022-12-10T00:38:32.995Z,53.37
2022-12-10T00:41:01.045Z,55.93
2022-12-10T00:43:28.208Z,51.90
2022-12-10T00:45:55.568Z,51.07
2022-12-10T00:48:22.888Z,58.30
2022-12-10T00:51:01.946Z,59.03
2022-12-10T00:53:30.176Z,67.83
2022-12-10T00:55:58.026Z,62.50
2022-12-10T00:58:28.473Z,67.73
2022-12-10T01:00:55.625Z,74.10
2022-12-10T01:03:22.805Z,68.90
2022-12-10T01:05:50.018Z,66.70
2022-12-10T01:08:17.161Z,58.87
2022-12-10T01:10:43.851Z,62.40
2022-12-10T01:13:10.978Z,67.50
2022-12-10T01:15:41.039Z,63.00
2022-12-10T01:18:08.175Z,74.33
2022-12-10T01:20:37.461Z,64.87
2022-12-10T01:23:04.320Z,62.47
2022-12-10T01:25:31.465Z,62.30
2022-12-10T01:27:58.624Z,62.43
2022-12-10T01:30:25.774Z,64.60
2022-12-10T01:32:52.532Z,66.80
2022-12-10T01:35:19.426Z,65.73
2022-12-10T01:37:46.614Z,70.20
2022-12-10T01:40:13.722Z,66.07
2022-12-10T01:42:40.915Z,66.97
2022-12-10T01:45:12.744Z,72.60
2022-12-10T01:47:40.050Z,69.67
2022-12-10T01:50:09.480Z,62.73
2022-12-10T01:52:36.920Z,64.77
2022-12-10T01:55:10.284Z,63.00
2022-12-10T01:57:37.486Z,62.10
2022-12-10T02:00:08.205Z,64.33
2022-12-10T02:02:35.250Z,67.50
2022-12-10T02:05:08.133Z,62.10
2022-12-10T02:07:43.415Z,68.57
2022-12-10T02:10:33.607Z,67.80
2022-12-10T02:13:30.702Z,67.80
2022-12-10T02:16:11.410Z,64.20
2022-12-10T02:18:38.538Z,62.30
2022-12-10T02:21:19.162Z,68.40
2022-12-10T02:23:52.911Z,64.10
2022-12-10T02:27:04.692Z,61.57
2022-12-10T02:29:32.284Z,67.00
2022-12-10T02:32:07.146Z,69.73
2022-12-10T02:34:39.673Z,67.57
2022-12-10T02:37:21.163Z,64.93
2022-12-10T02:39:51.668Z,66.00
2022-12-10T02:42:20.162Z,69.03
2022-12-10T02:44:49.649Z,69.43
2022-12-10T02:47:19.075Z,65.43
2022-12-10T02:49:48.621Z,69.00
2022-12-10T02:52:18.455Z,74.03
2022-12-10T02:54:50.003Z,66.57
2022-12-10T02:57:17.140Z,69.20
2022-12-10T03:00:02.157Z,72.73
2022-12-10T03:02:53.937Z,69.97
2022-12-10T03:05:42.474Z,74.27
2022-12-10T03:08:39.255Z,63.20
2022-12-10T03:11:08.950Z,65.00
2022-12-10T03:14:00.893Z,59.47
2022-12-10T03:16:34.558Z,66.43
2022-12-10T03:19:06.372Z,71.20
2022-12-10T03:21:35.620Z,67.83
2022-12-10T03:24:04.292Z,64.30
2022-12-10T03:26:31.584Z,67.00
2022-12-10T03:29:05.961Z,66.17
2022-12-10T03:31:35.174Z,64.00
2022-12-10T03:34:03.487Z,62.57
2022-12-10T03:36:31.732Z,66.67
2022-12-10T03:38:59.158Z,62.23
2022-12-10T03:41:25.984Z,59.93
2022-12-10T03:43:58.227Z,56.40
2022-12-10T03:46:27.548Z,62.20
2022-12-10T03:48:55.159Z,65.33
2022-12-10T03:51:22.586Z,57.70
2022-12-10T03:53:52.329Z,58.10
2022-12-10T03:56:20.577Z,54.50
2022-12-10T03:58:47.838Z,59.97
2022-12-10T04:01:15.822Z,53.83
2022-12-10T04:03:43.465Z,60.23
2022-12-10T04:06:14.945Z,62.57
2022-12-10T04:08:42.285Z,58.50
2022-12-10T04:11:11.442Z,58.03
2022-12-10T04:13:57.522Z,57.13
2022-12-10T04:16:28.485Z,62.27
2022-12-10T04:19:04.170Z,58.70
2022-12-10T04:21:50.954Z,55.03
2022-12-10T04:24:38.196Z,59.97
2022-12-10T04:27:09.478Z,62.10
2022-12-10T04:29:36.619Z,60.50
2022-12-10T04:32:03.728Z,61.90
2022-12-10T04:34:30.845Z,56.80
2022-12-10T04:36:58.839Z,52.87
2022-12-10T04:39:26.063Z,52.43
2022-12-10T04:41:53.353Z,57.40
2022-12-10T04:44:20.783Z,56.80
2022-12-10T04:46:48.600Z,52.60
2022-12-10T04:49:15.995Z,53.40
2022-12-10T04:51:43.524Z,60.53
2022-12-10T04:54:10.426Z,60.80
2022-12-10T04:56:37.313Z,65.07
2022-12-10T04:59:05.624Z,66.93
2022-12-10T05:01:33.025Z,58.23
2022-12-10T05:04:02.126Z,58.80
2022-12-10T05:06:29.155Z,61.70
2022-12-10T05:08:56.080Z,68.33
2022-12-10T05:11:25.360Z,65.33
2022-12-10T05:13:54.080Z,59.00
2022-12-10T05:16:22.564Z,61.43
2022-12-10T05:18:50.408Z,56.57
2022-12-10T05:21:19.809Z,63.83
2022-12-10T05:23:49.334Z,59.53
2022-12-10T05:26:20.555Z,56.73
2022-12-10T05:28:56.791Z,60.43
2022-12-10T05:31:26.305Z,62.50
2022-12-10T05:33:54.210Z,55.60
2022-12-10T05:36:24.094Z,61.73
2022-12-10T05:38:51.950Z,52.67
2022-12-10T05:41:21.248Z,56.97
2022-12-10T05:43:48.653Z,55.33
2022-12-10T05:46:21.919Z,53.90
2022-12-10T05:48:48.785Z,60.37
2022-12-10T05:51:18.846Z,62.63
2022-12-10T05:53:46.038Z,67.63
2022-12-10T05:56:16.222Z,59.73
2022-12-10T05:58:44.437Z,68.30
2022-12-10T06:01:17.710Z,70.13
2022-12-10T06:03:44.770Z,59.13
2022-12-10T06:06:12.681Z,65.80
2022-12-10T06:08:40.487Z,53.87
2022-12-10T06:11:09.440Z,61.07
2022-12-10T06:13:36.977Z,67.20
2022-12-10T06:16:08.737Z,58.47
2022-12-10T06:18:36.477Z,59.97
2022-12-10T06:21:12.651Z,59.27
2022-12-10T06:23:40.305Z,61.70
2022-12-10T06:26:16.137Z,57.93
2022-12-10T06:28:44.927Z,61.17
2022-12-10T06:31:12.071Z,58.07
2022-12-10T06:33:38.794Z,62.07
2022-12-10T06:36:07.682Z,63.73
2022-12-10T06:38:34.867Z,73.23
2022-12-10T06:41:04.643Z,70.60
2022-12-10T06:43:31.769Z,90.67
2022-12-10T06:45:58.550Z,78.73
2022-12-10T06:48:25.306Z,80.33
2022-12-10T06:50:52.110Z,67.90
2022-12-10T06:53:19.870Z,85.97
2022-12-10T06:55:46.959Z,70.57
2022-12-10T06:58:13.729Z,68.37
2022-12-10T07:00:40.924Z,73.00
2022-12-10T07:03:07.744Z,78.27
2022-12-10T07:05:34.478Z,71.43
2022-12-10T07:08:01.245Z,71.03
2022-12-10T07:10:28.037Z,75.40
2022-12-10T07:12:55.115Z,75.23
2022-12-10T07:15:24.176Z,81.63
2022-12-10T07:17:52.597Z,86.33
2022-12-10T07:20:19.688Z,81.83
2022-12-10T07:22:46.406Z,83.33
2022-12-10T07:25:13.581Z,75.90
2022-12-10T07:27:40.714Z,67.50
2022-12-10T07:30:08.256Z,66.63
2022-12-10T07:32:35.600Z,69.40
2022-12-10T07:35:02.807Z,59.67
2022-12-10T07:37:29.938Z,64.97
2022-12-10T07:39:56.742Z,66.60
2022-12-10T07:42:23.516Z,68.53
2022-12-10T07:44:50.496Z,65.13
2022-12-10T07:47:17.645Z,69.47
2022-12-10T07:49:44.760Z,68.80
2022-12-10T07:52:12.062Z,62.30
2022-12-10T07:54:39.184Z,59.60
2022-12-10T07:57:06.035Z,64.67
2022-12-10T07:59:33.177Z,67.37
2022-12-10T08:02:05.553Z,63.47
2022-12-10T08:04:35.644Z,57.23
2022-12-10T08:07:02.729Z,68.50
2022-12-10T08:09:29.537Z,60.80
2022-12-10T08:11:56.280Z,57.73
2022-12-10T08:14:23.452Z,64.57
2022-12-10T08:16:50.229Z,60.37
2022-12-10T08:19:21.541Z,57.03
2022-12-10T08:21:49.694Z,57.53
2022-12-10T08:24:16.816Z,57.87
2022-12-10T08:26:43.632Z,57.67
2022-12-10T08:29:10.814Z,59.87
2022-12-10T08:31:38.371Z,56.47
2022-12-10T08:34:06.275Z,56.80
2022-12-10T08:36:33.459Z,57.00
2022-12-10T08:39:00.591Z,52.00
2022-12-10T08:41:27.774Z,53.93
2022-12-10T08:43:54.644Z,59.37
2022-12-10T08:46:21.529Z,52.60
2022-12-10T08:48:48.368Z,57.57
2022-12-10T08:51:17.337Z,72.13
2022-12-10T08:53:45.222Z,51.50
2022-12-10T08:56:12.290Z,54.80
2022-12-10T08:58:39.832Z,53.67
2022-12-10T09:01:11.950Z,60.03
2022-12-10T09:03:39.191Z,53.90
2022-12-10T09:06:08.293Z,59.90
2022-12-10T09:08:35.237Z,58.50
2022-12-10T09:11:22.850Z,59.07
2022-12-10T09:13:50.212Z,61.30
2022-12-10T09:16:17.333Z,53.87
2022-12-10T09:18:44.207Z,48.60
2022-12-10T09:21:16.653Z,51.53
2022-12-10T09:23:44.293Z,61.80
2022-12-10T09:26:16.223Z,53.03
2022-12-10T09:28:44.196Z,64.27
2022-12-10T09:31:15.245Z,56.03
2022-12-10T09:33:49.532Z,58.10
2022-12-10T09:36:16.746Z,59.17
2022-12-10T09:38:46.171Z,59.27
2022-12-10T09:41:31.031Z,59.53
2022-12-10T09:44:11.970Z,54.70
2022-12-10T09:47:01.502Z,53.53
2022-12-10T09:49:59.384Z,56.60
2022-12-10T09:52:30.538Z,54.97
2022-12-10T09:55:03.843Z,52.63
2022-12-10T09:57:39.531Z,62.97
2022-12-10T10:00:21.381Z,57.13
2022-12-10T10:02:49.571Z,57.00
2022-12-10T10:05:26.031Z,51.87
2022-12-10T10:07:56.260Z,48.97
2022-12-10T10:10:29.509Z,52.90
2022-12-10T10:13:08.183Z,53.90
2022-12-10T10:15:38.317Z,57.33
2022-12-10T10:18:33.331Z,59.70
2022-12-10T10:21:01.536Z,56.47
2022-12-10T10:23:28.266Z,53.37
2022-12-10T10:25:55.058Z,52.30
2022-12-10T10:28:23.201Z,70.07
2022-12-10T10:30:53.280Z,53.30
2022-12-10T10:33:20.263Z,58.73
2022-12-10T10:35:55.990Z,52.57
2022-12-10T10:38:30.014Z,52.03
2022-12-10T10:40:59.013Z,33.87
2022-12-10T10:43:33.953Z,19.43
2022-12-10T10:46:23.558Z,27.97
2022-12-10T10:48:51.450Z,37.33
2022-12-10T10:51:26.428Z,36.43
2022-12-10T10:53:56.776Z,41.97
2022-12-10T10:56:30.211Z,47.30
2022-12-10T10:59:04.971Z,48.53
2022-12-10T11:01:48.493Z,43.90
2022-12-10T11:04:16.985Z,51.27
2022-12-10T11:06:45.502Z,42.03
2022-12-10T11:09:23.083Z,27.67
2022-12-10T11:12:00.709Z,22.60
2022-12-10T11:14:35.284Z,24.77
2022-12-10T11:17:12.359Z,39.47
2022-12-10T11:20:01.216Z,46.10
2022-12-10T11:22:34.484Z,40.07
2022-12-10T11:25:01.924Z,44.13
2022-12-10T11:27:41.475Z,39.00
2022-12-10T11:30:23.204Z,34.40
2022-12-10T11:32:57.010Z,30.33
2022-12-10T11:35:48.764Z,26.50
2022-12-10T11:38:27.298Z,29.93
2022-12-10T11:41:27.481Z,26.53
2022-12-10T11:44:26.598Z,34.53
2022-12-10T11:47:06.270Z,22.23
2022-12-10T11:49:46.087Z,19.70
2022-12-10T11:52:34.450Z,21.40
2022-12-10T11:55:25.496Z,33.47
2022-12-10T11:58:10.421Z,15.77
2022-12-10T12:01:00.320Z,21.40
2022-12-10T12:03:38.889Z,28.33
2022-12-10T12:06:33.381Z,23.33
2022-12-10T12:09:11.222Z,24.33
2022-12-10T12:11:57.124Z,32.13
2022-12-10T12:14:49.424Z,27.77
2022-12-10T12:17:25.253Z,27.17
2022-12-10T12:20:01.686Z,24.67
2022-12-10T12:22:28.912Z,24.10
2022-12-10T12:25:03.089Z,26.13
2022-12-10T12:27:34.467Z,24.67
2022-12-10T12:30:06.518Z,23.70
2022-12-10T12:33:00.884Z,25.37
2022-12-10T12:35:39.442Z,24.27
2022-12-10T12:38:24.190Z,22.10
2022-12-10T12:41:03.627Z,24.57
2022-12-10T12:43:36.204Z,23.53
2022-12-10T12:46:10.150Z,18.43
2022-12-10T12:48:59.534Z,21.37
2022-12-10T12:51:45.035Z,22.60
2022-12-10T12:54:14.979Z,24.23
2022-12-10T12:57:00.570Z,19.87
2022-12-10T12:59:52.232Z,21.03
2022-12-10T13:02:43.995Z,20.60
2022-12-10T13:05:35.349Z,24.67
2022-12-10T13:08:20.553Z,25.30
2022-12-10T13:10:55.208Z,25.33
2022-12-10T13:13:37.354Z,23.80
2022-12-10T13:16:46.216Z,23.90
2022-12-10T13:19:22.138Z,22.63
2022-12-10T13:22:06.008Z,28.93
2022-12-10T13:24:38.984Z,26.83
2022-12-10T13:27:20.364Z,33.60
2022-12-10T13:29:53.078Z,25.73
2022-12-10T13:32:34.850Z,24.87
2022-12-10T13:35:10.668Z,24.33
2022-12-10T13:37:54.170Z,22.33
2022-12-10T13:40:51.383Z,23.70
2022-12-10T13:43:42.439Z,25.60
2022-12-10T13:46:22.764Z,27.13
2022-12-10T13:48:52.678Z,33.90
2022-12-10T13:51:40.720Z,27.43
2022-12-10T13:54:18.891Z,31.90
2022-12-10T13:57:15.829Z,24.97
2022-12-10T13:59:49.416Z,24.43
2022-12-10T14:02:16.108Z,22.17
2022-12-10T14:05:07.482Z,25.60
2022-12-10T14:07:35.352Z,29.23
2022-12-10T14:10:03.021Z,26.70
2022-12-10T14:12:40.617Z,24.27
2022-12-10T14:15:19.501Z,27.20
2022-12-10T14:17:47.514Z,27.60
2022-12-10T14:20:25.702Z,29.47
2022-12-10T14:23:15.608Z,27.33
2022-12-10T14:25:43.967Z,29.90
2022-12-10T14:28:18.760Z,34.67
2022-12-10T14:30:47.819Z,28.20
2022-12-10T14:33:18.222Z,40.73
2022-12-10T14:35:52.337Z,30.77
2022-12-10T14:38:28.479Z,27.33
2022-12-10T14:40:56.194Z,35.03
2022-12-10T14:43:40.239Z,30.00
2022-12-10T14:46:13.960Z,28.90
2022-12-10T14:48:43.910Z,28.73
2022-12-10T14:51:23.060Z,33.37
2022-12-10T14:53:51.325Z,31.73
2022-12-10T14:56:21.699Z,28.03
2022-12-10T14:59:20.964Z,32.60
2022-12-10T15:01:52.532Z,36.70
2022-12-10T15:04:26.587Z,35.10
2022-12-10T15:06:59.163Z,46.03
2022-12-10T15:09:28.001Z,39.27
2022-12-10T15:11:59.963Z,44.20
2022-12-10T15:14:29.933Z,49.50
2022-12-10T15:17:02.726Z,43.20
2022-12-10T15:19:30.127Z,28.40
2022-12-10T15:22:19.999Z,28.90
2022-12-10T15:24:47.580Z,25.83
2022-12-10T15:27:18.593Z,31.63
2022-12-10T15:29:45.659Z,33.10
2022-12-10T15:32:20.752Z,31.67
2022-12-10T15:34:53.500Z,31.83
2022-12-10T15:37:32.574Z,29.10
2022-12-10T15:40:02.412Z,31.50
2022-12-10T15:42:44.075Z,32.50
2022-12-10T15:45:25.066Z,32.20
2022-12-10T15:47:51.886Z,32.57
2022-12-10T15:50:19.041Z,30.53
2022-12-10T15:52:46.164Z,31.10
2022-12-10T15:55:14.747Z,33.13
2022-12-10T15:57:45.807Z,31.80
2022-12-10T16:00:27.384Z,30.57
2022-12-10T16:03:04.123Z,38.20
2022-12-10T16:05:36.224Z,39.90
2022-12-10T16:08:08.293Z,33.87
2022-12-10T16:10:35.096Z,28.37
2022-12-10T16:13:05.893Z,32.33
2022-12-10T16:15:37.613Z,32.63
2022-12-10T16:18:05.903Z,32.80
2022-12-10T16:20:33.832Z,35.50
2022-12-10T16:23:01.183Z,37.37
2022-12-10T16:25:31.144Z,37.57
2022-12-10T16:27:59.339Z,33.20
2022-12-10T16:30:37.828Z,32.13
2022-12-10T16:33:06.832Z,36.13
2022-12-10T16:35:34.012Z,37.23
2022-12-10T16:38:04.620Z,45.10
2022-12-10T16:40:35.743Z,39.00
2022-12-10T16:43:02.908Z,35.00
2022-12-10T16:45:35.786Z,42.03
2022-12-10T16:48:03.249Z,34.53
2022-12-10T16:50:30.511Z,34.30
2022-12-10T16:52:58.226Z,35.40
2022-12-10T16:55:27.058Z,38.10
2022-12-10T16:57:55.217Z,37.90
2022-12-10T17:00:24.892Z,38.67
2022-12-10T17:02:52.718Z,38.90
2022-12-10T17:05:39.788Z,36.70
2022-12-10T17:08:06.572Z,38.33
2022-12-10T17:10:52.402Z,36.47
2022-12-10T17:13:24.255Z,39.43
2022-12-10T17:15:51.359Z,50.43
2022-12-10T17:18:18.959Z,36.43
2022-12-10T17:20:47.288Z,46.33
2022-12-10T17:23:14.861Z,40.03
2022-12-10T17:25:42.473Z,44.73
2022-12-10T17:28:17.692Z,36.70
2022-12-10T17:30:44.985Z,39.90
2022-12-10T17:33:22.874Z,37.40
2022-12-10T17:35:52.177Z,41.00
2022-12-10T17:38:25.292Z,47.17
2022-12-10T17:40:53.437Z,38.77
2022-12-10T17:43:20.357Z,38.00
2022-12-10T17:45:47.206Z,33.43
2022-12-10T17:48:16.317Z,35.20
2022-12-10T17:50:45.254Z,35.67
2022-12-10T17:53:18.000Z,38.83
2022-12-10T17:55:49.107Z,34.70
2022-12-10T17:58:16.780Z,35.43
2022-12-10T18:00:44.717Z,36.93
2022-12-10T18:03:11.870Z,36.20
2022-12-10T18:05:39.378Z,38.20
2022-12-10T18:08:06.612Z,32.70
2022-12-10T18:10:34.439Z,39.47
2022-12-10T18:13:01.775Z,39.23
2022-12-10T18:15:30.479Z,41.37
2022-12-10T18:17:59.249Z,40.20
2022-12-10T18:20:30.703Z,38.40
2022-12-10T18:22:58.963Z,44.30
2022-12-10T18:25:26.136Z,41.00
2022-12-10T18:27:53.405Z,40.97
2022-12-10T18:30:23.841Z,40.60
2022-12-10T18:32:51.028Z,40.80
2022-12-10T18:35:18.980Z,43.30
2022-12-10T18:37:46.137Z,38.77
2022-12-10T18:40:22.081Z,36.43
2022-12-10T18:42:51.535Z,45.43
2022-12-10T18:45:18.854Z,44.50
2022-12-10T18:47:45.857Z,39.70
2022-12-10T18:50:30.926Z,39.33
2022-12-10T18:52:57.719Z,43.83
2022-12-10T18:55:25.481Z,42.90
2022-12-10T18:58:04.430Z,39.37
2022-12-10T19:00:35.805Z,42.70
2022-12-10T19:03:03.589Z,43.23
2022-12-10T19:05:30.719Z,42.93
2022-12-10T19:07:57.528Z,37.87
2022-12-10T19:10:25.507Z,40.23
2022-12-10T19:12:52.781Z,38.87
2022-12-10T19:15:21.467Z,49.83
2022-12-10T19:17:49.306Z,47.90
2022-12-10T19:20:20.124Z,40.70
2022-12-10T19:22:47.311Z,42.23
2022-12-10T19:25:14.555Z,40.40
2022-12-10T19:27:41.526Z,45.10
2022-12-10T19:30:19.277Z,50.97
2022-12-10T19:32:46.544Z,60.27
2022-12-10T19:35:16.130Z,43.27
2022-12-10T19:37:44.734Z,79.77
2022-12-10T19:40:21.497Z,54.00
2022-12-10T19:42:49.137Z,55.10
2022-12-10T19:45:17.483Z,55.43
2022-12-10T19:47:45.079Z,50.73
2022-12-10T19:50:20.415Z,41.40
2022-12-10T19:52:47.808Z,42.23
2022-12-10T19:55:16.786Z,46.90
2022-12-10T19:57:44.399Z,45.30
2022-12-10T20:00:34.789Z,42.80
2022-12-10T20:03:02.022Z,47.67
2022-12-10T20:05:29.278Z,51.10
2022-12-10T20:07:56.696Z,53.90
2022-12-10T20:10:26.293Z,56.70
2022-12-10T20:12:53.951Z,53.13
2022-12-10T20:15:23.152Z,60.17
2022-12-10T20:17:50.373Z,50.97
2022-12-10T20:20:27.065Z,52.50
2022-12-10T20:22:54.410Z,93.37
2022-12-10T20:25:23.419Z,63.20
2022-12-10T20:27:51.499Z,51.17
2022-12-10T20:30:26.069Z,48.03
2022-12-10T20:32:53.290Z,45.00
2022-12-10T20:35:21.278Z,43.40
2022-12-10T20:37:49.215Z,47.43
2022-12-10T20:40:33.982Z,47.40
2022-12-10T20:43:01.190Z,40.50
2022-12-10T20:45:28.282Z,54.07
2022-12-10T20:47:55.181Z,51.90
2022-12-10T20:50:22.321Z,45.20
2022-12-10T20:52:49.527Z,47.97
2022-12-10T20:55:16.790Z,43.83
2022-12-10T20:57:43.966Z,46.33
2022-12-10T21:00:17.118Z,48.37
2022-12-10T21:02:44.449Z,48.23
2022-12-10T21:05:13.065Z,52.10
2022-12-10T21:07:40.431Z,48.23
2022-12-10T21:10:08.257Z,54.63
2022-12-10T21:12:35.457Z,49.53
2022-12-10T21:15:07.388Z,46.80
2022-12-10T21:17:37.772Z,46.93
2022-12-10T21:20:04.994Z,50.73
2022-12-10T21:22:33.371Z,50.93
2022-12-10T21:25:00.482Z,50.30
2022-12-10T21:27:27.269Z,45.27
2022-12-10T21:29:54.445Z,45.07
2022-12-10T21:32:21.559Z,47.53
2022-12-10T21:34:48.789Z,48.10
2022-12-10T21:37:15.949Z,46.63
2022-12-10T21:39:43.130Z,47.80
2022-12-10T21:42:31.824Z,47.83
2022-12-10T21:44:59.922Z,49.67
2022-12-10T21:47:27.096Z,45.67
2022-12-10T21:49:54.332Z,59.93
2022-12-10T21:52:21.515Z,49.27
2022-12-10T21:54:48.692Z,48.83
2022-12-10T21:57:15.851Z,47.70
2022-12-10T21:59:42.977Z,53.90
2022-12-10T22:02:10.644Z,48.80
2022-12-10T22:04:37.755Z,45.27
2022-12-10T22:07:04.896Z,47.60
2022-12-10T22:09:32.104Z,55.90
2022-12-10T22:11:59.303Z,46.70
2022-12-10T22:14:26.576Z,47.07
2022-12-10T22:16:53.729Z,53.30
2022-12-10T22:19:20.914Z,50.23
2022-12-10T22:21:48.039Z,53.00
2022-12-10T22:24:15.235Z,54.80
2022-12-10T22:26:42.455Z,52.30
2022-12-10T22:29:09.654Z,54.73
2022-12-10T22:31:36.926Z,49.70
2022-12-10T22:34:03.886Z,47.13
2022-12-10T22:36:30.735Z,47.10
2022-12-10T22:38:57.909Z,47.87
2022-12-10T22:41:25.057Z,48.77
2022-12-10T22:43:52.689Z,48.23
2022-12-10T22:46:20.775Z,47.80
2022-12-10T22:48:47.771Z,41.90
2022-12-10T22:51:14.984Z,49.03
2022-12-10T22:53:42.188Z,50.10
2022-12-10T22:56:11.255Z,43.80
2022-12-10T22:58:38.507Z,45.10
2022-12-10T23:01:06.079Z,44.63
2022-12-10T23:03:33.417Z,46.93
2022-12-10T23:06:01.485Z,48.57
2022-12-10T23:08:31.138Z,43.47
2022-12-10T23:10:58.386Z,48.70
2022-12-10T23:13:25.457Z,50.90
2022-12-10T23:15:54.541Z,50.00
2022-12-10T23:18:22.414Z,48.80
2022-12-10T23:20:50.598Z,51.00
2022-12-10T23:23:19.334Z,45.43
2022-12-10T23:25:46.748Z,45.20
2022-12-10T23:28:13.975Z,41.93
2022-12-10T23:30:41.361Z,42.47
2022-12-10T23:33:09.262Z,42.63
2022-12-10T23:35:43.253Z,42.00
2022-12-10T23:38:10.767Z,48.10
2022-12-10T23:40:45.040Z,39.50
2022-12-10T23:43:12.885Z,43.23
2022-12-10T23:45:43.882Z,42.00
2022-12-10T23:48:11.256Z,39.00
2022-12-10T23:50:38.443Z,44.87
2022-12-10T23:53:06.095Z,48.00
2022-12-10T23:55:33.433Z,41.57
2022-12-10T23:58:00.327Z,44.03
